Jiaxing, China
Current Conditions -  °F | °C
As of 1:30 PM on Thursday 27 Nov 2014 (Local Time) from ZSHC Reporting Station
Clear Clear  
Wind Chill: 70°   Ceiling: Unl
Heat Index: 70°   Visibility: 6mi
Dew Point: 48°   Wind: 7mph
Humidity: 46%   Direction: 150°SSE
Pressure: 29.97"   Gusts: NA
Location:  30.77°N, 120.75°E
Report Text: ZSHC 270530Z 15003MPS 110V200 CAVOK 21/09 Q1015 NOSIG
Loading
Personal Weather Stations






























Interactive Weather Map New forecast layout! Learn more

10-Day Weather Forecast

Advertisements
Track Severe Weather on mobile